createdAt,value
2022-12-19T00:01:38.085Z,27.23
2022-12-19T00:04:08.226Z,26.70
2022-12-19T00:06:36.325Z,27.90
2022-12-19T00:09:03.367Z,26.02
2022-12-19T00:11:30.517Z,28.95
2022-12-19T00:13:57.948Z,26.80
2022-12-19T00:16:25.812Z,27.55
2022-12-19T00:18:55.452Z,28.02
2022-12-19T00:21:23.539Z,28.77
2022-12-19T00:23:51.049Z,29.23
2022-12-19T00:26:18.074Z,26.88
2022-12-19T00:28:46.102Z,27.05
2022-12-19T00:31:13.259Z,27.70
2022-12-19T00:33:43.315Z,27.48
2022-12-19T00:38:37.829Z,24.98
2022-12-19T00:41:14.731Z,26.60
2022-12-19T00:43:41.785Z,28.17
2022-12-19T00:46:09.691Z,28.15
2022-12-19T00:48:36.915Z,26.38
2022-12-19T00:51:07.525Z,26.80
2022-12-19T00:53:34.665Z,27.42
2022-12-19T00:56:02.808Z,28.92
2022-12-19T00:58:33.220Z,28.75
2022-12-19T01:01:28.752Z,26.90
2022-12-19T01:04:27.292Z,27.02
2022-12-19T01:06:42.972Z,27.13
2022-12-19T01:09:11.286Z,26.27
2022-12-19T01:11:56.866Z,27.40
2022-12-19T01:14:24.014Z,27.02
2022-12-19T01:16:51.587Z,28.40
2022-12-19T01:19:18.634Z,27.15
2022-12-19T01:21:45.701Z,28.25
2022-12-19T01:24:12.925Z,27.58
2022-12-19T01:26:41.790Z,27.83
2022-12-19T01:29:08.814Z,25.38
2022-12-19T01:31:36.113Z,26.42
2022-12-19T01:34:03.213Z,26.60
2022-12-19T01:36:30.326Z,28.55
2022-12-19T01:38:57.759Z,27.30
2022-12-19T01:41:24.892Z,27.40
2022-12-19T01:43:57.046Z,28.58
2022-12-19T01:46:44.599Z,26.42
2022-12-19T01:49:14.897Z,28.45
2022-12-19T01:51:44.369Z,28.60
2022-12-19T01:54:12.473Z,27.10
2022-12-19T01:56:43.500Z,29.10
2022-12-19T01:59:11.596Z,27.92
2022-12-19T02:01:51.088Z,30.58
2022-12-19T02:04:19.019Z,28.95
2022-12-19T02:06:46.114Z,31.50
2022-12-19T02:09:13.120Z,29.65
2022-12-19T02:11:40.136Z,28.48
2022-12-19T02:14:07.236Z,30.75
2022-12-19T02:16:42.053Z,31.10
2022-12-19T02:19:13.146Z,31.80
2022-12-19T02:21:54.853Z,31.42
2022-12-19T02:24:37.440Z,29.92
2022-12-19T02:27:21.168Z,30.98
2022-12-19T02:29:54.607Z,29.35
2022-12-19T02:32:22.195Z,30.80
2022-12-19T02:35:21.832Z,31.67
2022-12-19T02:37:50.275Z,30.00
2022-12-19T02:40:22.291Z,30.77
2022-12-19T02:42:50.869Z,31.15
2022-12-19T02:45:23.369Z,31.70
2022-12-19T02:47:56.057Z,31.50
2022-12-19T02:50:23.079Z,30.38
2022-12-19T02:52:50.250Z,29.13
2022-12-19T02:55:18.743Z,30.80
2022-12-19T02:57:54.706Z,29.65
2022-12-19T03:00:22.341Z,28.88
2022-12-19T03:03:01.109Z,32.10
2022-12-19T03:05:50.272Z,29.80
2022-12-19T03:08:17.376Z,30.80
2022-12-19T03:10:45.270Z,30.80
2022-12-19T03:13:13.636Z,30.52
2022-12-19T03:15:41.020Z,31.65
2022-12-19T03:18:08.068Z,31.33
2022-12-19T03:20:45.983Z,31.30
2022-12-19T03:23:13.024Z,31.25
2022-12-19T03:25:40.116Z,31.23
2022-12-19T03:28:08.047Z,29.88
2022-12-19T03:30:35.172Z,31.58
2022-12-19T03:33:02.507Z,29.20
2022-12-19T03:35:29.943Z,31.85
2022-12-19T03:38:01.385Z,31.85
2022-12-19T03:40:28.481Z,29.63
2022-12-19T03:43:11.383Z,31.52
2022-12-19T03:45:44.685Z,32.33
2022-12-19T03:48:13.795Z,31.40
2022-12-19T03:50:54.748Z,30.77
2022-12-19T03:53:54.025Z,30.52
2022-12-19T03:56:26.939Z,30.98
2022-12-19T03:58:56.317Z,32.10
2022-12-19T04:01:23.488Z,30.80
2022-12-19T04:03:51.666Z,32.92
2022-12-19T04:06:18.835Z,33.50
2022-12-19T04:08:45.928Z,30.98
2022-12-19T04:11:15.253Z,33.75
2022-12-19T04:13:43.345Z,32.65
2022-12-19T04:16:10.485Z,32.90
2022-12-19T04:18:37.976Z,32.35
2022-12-19T04:21:07.659Z,30.77
2022-12-19T04:23:42.215Z,31.43
2022-12-19T04:26:09.237Z,32.45
2022-12-19T04:28:38.627Z,32.13
2022-12-19T04:31:05.811Z,32.80
2022-12-19T04:33:32.889Z,32.35
2022-12-19T04:36:00.497Z,33.17
2022-12-19T04:38:27.622Z,31.98
2022-12-19T04:40:54.728Z,31.08
2022-12-19T04:43:21.789Z,31.98
2022-12-19T04:45:51.672Z,33.17
2022-12-19T04:48:22.604Z,32.88
2022-12-19T04:50:49.638Z,32.58
2022-12-19T04:53:16.745Z,32.05
2022-12-19T04:55:44.159Z,33.85
2022-12-19T04:58:15.286Z,33.47
2022-12-19T05:00:44.798Z,31.90
2022-12-19T05:03:11.866Z,32.33
2022-12-19T05:05:38.931Z,32.03
2022-12-19T05:08:06.086Z,31.20
2022-12-19T05:10:33.213Z,31.20
2022-12-19T05:13:00.286Z,30.88
2022-12-19T05:15:27.324Z,31.50
2022-12-19T05:17:54.384Z,32.17
2022-12-19T05:20:21.447Z,32.80
2022-12-19T05:22:48.481Z,33.67
2022-12-19T05:25:15.584Z,31.10
2022-12-19T05:27:42.607Z,33.00
2022-12-19T05:30:09.891Z,34.13
2022-12-19T05:32:36.918Z,32.72
2022-12-19T05:35:03.962Z,32.97
2022-12-19T05:37:30.989Z,34.67
2022-12-19T05:39:58.015Z,34.00
2022-12-19T05:42:26.334Z,32.10
2022-12-19T05:44:53.326Z,35.72
2022-12-19T05:47:23.505Z,31.98
2022-12-19T05:49:50.548Z,31.13
2022-12-19T05:52:17.580Z,34.33
2022-12-19T05:54:44.586Z,35.00
2022-12-19T05:57:11.569Z,34.03
2022-12-19T05:59:38.660Z,33.22
2022-12-19T06:02:05.740Z,34.95
2022-12-19T06:04:32.903Z,35.67
2022-12-19T06:06:59.993Z,34.28
2022-12-19T06:09:27.078Z,34.42
2022-12-19T06:11:54.144Z,36.30
2022-12-19T06:14:21.399Z,33.42
2022-12-19T06:16:48.447Z,35.55
2022-12-19T06:19:15.510Z,34.08
2022-12-19T06:21:48.264Z,35.22
2022-12-19T06:24:15.649Z,35.08
2022-12-19T06:26:42.748Z,33.42
2022-12-19T06:29:09.840Z,33.35
2022-12-19T06:31:36.903Z,34.03
2022-12-19T06:34:03.942Z,33.50
2022-12-19T06:36:31.189Z,34.35
2022-12-19T06:38:58.351Z,31.55
2022-12-19T06:41:43.853Z,30.98
2022-12-19T06:44:12.211Z,33.75
2022-12-19T06:46:39.872Z,33.28
2022-12-19T06:49:07.340Z,34.28
2022-12-19T06:51:34.356Z,33.40
2022-12-19T06:54:01.379Z,32.38
2022-12-19T06:56:28.350Z,33.90
2022-12-19T06:58:55.426Z,35.30
2022-12-19T07:01:25.926Z,32.45
2022-12-19T07:06:19.948Z,33.22
2022-12-19T07:08:46.959Z,32.75
2022-12-19T07:11:13.994Z,34.65
2022-12-19T07:13:40.975Z,32.90
2022-12-19T07:16:08.525Z,34.85
2022-12-19T07:18:36.699Z,35.13
2022-12-19T07:21:03.797Z,33.90
2022-12-19T07:23:31.042Z,36.08
2022-12-19T07:25:58.385Z,34.08
2022-12-19T07:28:25.450Z,36.42
2022-12-19T07:30:52.460Z,35.45
2022-12-19T07:33:21.616Z,35.95
2022-12-19T07:35:49.251Z,34.40
2022-12-19T07:38:16.267Z,34.83
2022-12-19T07:40:43.281Z,35.97
2022-12-19T07:43:10.331Z,34.58
2022-12-19T07:45:37.824Z,36.45
2022-12-19T07:48:05.190Z,35.20
2022-12-19T07:50:32.246Z,35.42
2022-12-19T07:52:59.373Z,36.05
2022-12-19T07:55:26.681Z,35.00
2022-12-19T07:57:53.846Z,36.03
2022-12-19T08:00:21.434Z,35.83
2022-12-19T08:02:48.587Z,35.38
2022-12-19T08:05:15.735Z,36.45
2022-12-19T08:07:42.754Z,35.08
2022-12-19T08:10:11.519Z,34.63
2022-12-19T08:12:38.718Z,35.45
2022-12-19T08:15:06.168Z,33.92
2022-12-19T08:17:34.959Z,35.40
2022-12-19T08:20:01.970Z,35.40
2022-12-19T08:22:32.212Z,36.03
2022-12-19T08:24:59.261Z,34.95
2022-12-19T08:27:26.493Z,36.90
2022-12-19T08:29:53.501Z,35.00
2022-12-19T08:32:21.679Z,35.20
2022-12-19T08:34:49.774Z,34.92
2022-12-19T08:37:17.068Z,35.90
2022-12-19T08:39:44.124Z,35.47
2022-12-19T08:42:11.171Z,35.53
2022-12-19T08:44:38.305Z,34.75
2022-12-19T08:47:05.462Z,35.17
2022-12-19T08:49:32.488Z,36.83
2022-12-19T08:51:59.488Z,34.65
2022-12-19T08:54:27.083Z,34.83
2022-12-19T08:56:54.143Z,35.30
2022-12-19T08:59:30.563Z,33.97
2022-12-19T09:01:59.514Z,36.88
2022-12-19T09:05:03.676Z,36.53
2022-12-19T09:07:15.736Z,35.42
2022-12-19T09:09:43.224Z,35.60
2022-12-19T09:12:10.318Z,34.50
2022-12-19T09:14:37.349Z,35.95
2022-12-19T09:17:04.993Z,35.13
2022-12-19T09:19:32.385Z,35.90
2022-12-19T09:21:59.484Z,35.55
2022-12-19T09:24:26.611Z,37.42
2022-12-19T09:26:53.658Z,35.15
2022-12-19T09:29:22.094Z,33.42
2022-12-19T09:31:56.427Z,34.80
2022-12-19T09:34:36.987Z,34.97
2022-12-19T09:37:09.274Z,35.55
2022-12-19T09:39:43.623Z,36.28
2022-12-19T09:42:24.105Z,35.40
2022-12-19T09:45:32.506Z,34.95
2022-12-19T09:48:06.721Z,35.60
2022-12-19T09:50:41.786Z,36.45
2022-12-19T09:53:13.172Z,35.97
2022-12-19T09:55:40.399Z,35.28
2022-12-19T09:58:13.084Z,35.33
2022-12-19T10:00:41.427Z,36.22
2022-12-19T10:03:13.540Z,36.47
2022-12-19T10:06:48.644Z,35.45
2022-12-19T10:12:40.846Z,32.85
2022-12-19T10:14:08.648Z,39.70
2022-12-19T10:17:22.605Z,34.72
2022-12-19T10:20:00.582Z,35.25
2022-12-19T10:22:43.062Z,37.45
2022-12-19T10:25:20.262Z,37.83
2022-12-19T10:27:58.399Z,34.83
2022-12-19T10:30:26.063Z,36.28
2022-12-19T10:32:54.828Z,37.13
2022-12-19T10:35:22.106Z,36.67
2022-12-19T10:37:54.544Z,35.58
2022-12-19T10:40:28.416Z,36.38
2022-12-19T10:43:03.315Z,36.03
2022-12-19T10:45:44.253Z,36.72
2022-12-19T10:48:15.572Z,36.67
2022-12-19T10:50:42.580Z,35.63
2022-12-19T10:53:11.308Z,35.35
2022-12-19T10:55:39.759Z,35.58
2022-12-19T10:58:21.117Z,35.85
2022-12-19T11:00:58.879Z,34.28
2022-12-19T11:03:26.077Z,34.00
2022-12-19T11:05:57.794Z,37.95
2022-12-19T11:08:32.639Z,35.38
2022-12-19T11:12:58.631Z,37.35
2022-12-19T11:19:13.451Z,37.05
2022-12-19T11:21:49.148Z,36.83
2022-12-19T11:29:18.576Z,38.20
2022-12-19T11:29:32.068Z,36.50
2022-12-19T11:29:40.720Z,37.42
2022-12-19T11:30:44.493Z,38.70
2022-12-19T11:33:54.458Z,35.55
2022-12-19T11:38:54.391Z,35.72
2022-12-19T11:41:30.105Z,38.20
2022-12-19T11:43:58.771Z,38.78
2022-12-19T11:46:32.489Z,39.13
2022-12-19T11:49:01.278Z,38.67
2022-12-19T11:51:41.703Z,40.15
2022-12-19T11:54:27.662Z,39.78
2022-12-19T11:56:54.680Z,38.20
2022-12-19T11:59:22.772Z,37.67
2022-12-19T12:02:01.738Z,36.33
2022-12-19T12:04:31.867Z,37.17
2022-12-19T12:06:59.321Z,39.25
2022-12-19T12:11:40.026Z,38.08
2022-12-19T12:20:27.341Z,37.95
2022-12-19T12:28:24.724Z,36.45
2022-12-19T12:31:12.378Z,37.13
2022-12-19T12:31:17.978Z,37.28
2022-12-19T12:31:50.996Z,35.92
2022-12-19T12:32:04.541Z,36.53
2022-12-19T12:35:40.782Z,36.10
2022-12-19T12:35:41.441Z,35.70
2022-12-19T12:39:58.484Z,37.90
2022-12-19T12:42:44.140Z,38.85
2022-12-19T12:45:18.358Z,37.67
2022-12-19T12:47:45.378Z,37.47
2022-12-19T12:50:14.740Z,38.60
2022-12-19T12:52:49.130Z,39.13
2022-12-19T12:55:16.981Z,37.90
2022-12-19T12:57:44.006Z,42.35
2022-12-19T13:00:14.900Z,40.80
2022-12-19T13:02:42.229Z,39.70
2022-12-19T13:05:19.427Z,39.47
2022-12-19T13:07:53.309Z,40.25
2022-12-19T13:10:24.516Z,40.03
2022-12-19T13:13:01.417Z,40.80
2022-12-19T13:15:28.451Z,40.13
2022-12-19T13:17:55.479Z,38.20
2022-12-19T13:20:25.663Z,39.88
2022-12-19T13:23:00.819Z,42.13
2022-12-19T13:25:27.846Z,39.05
2022-12-19T13:27:58.249Z,37.83
2022-12-19T13:30:26.106Z,39.45
2022-12-19T13:32:53.097Z,39.25
2022-12-19T13:35:59.826Z,40.75
2022-12-19T13:39:47.805Z,38.83
2022-12-19T13:41:24.919Z,38.25
2022-12-19T13:43:51.914Z,40.30
2022-12-19T13:46:21.412Z,40.00
2022-12-19T13:48:50.193Z,39.40
2022-12-19T13:51:17.177Z,39.88
2022-12-19T13:53:44.307Z,40.10
2022-12-19T13:56:15.296Z,39.45
2022-12-19T13:58:45.313Z,39.65
2022-12-19T14:01:20.729Z,41.17
2022-12-19T14:03:48.775Z,39.92
2022-12-19T14:06:19.993Z,39.35
2022-12-19T14:08:47.855Z,38.35
2022-12-19T14:12:29.677Z,39.35
2022-12-19T14:14:46.481Z,40.67
2022-12-19T14:17:14.191Z,40.03
2022-12-19T14:19:42.114Z,39.85
2022-12-19T14:22:25.831Z,40.47
2022-12-19T14:24:54.739Z,40.20
2022-12-19T14:28:21.386Z,39.17
2022-12-19T14:30:29.805Z,38.55
2022-12-19T14:33:45.142Z,40.42
2022-12-19T14:36:11.216Z,39.35
2022-12-19T14:39:27.078Z,37.60
2022-12-19T14:41:46.235Z,38.45
2022-12-19T14:51:51.833Z,37.00
2022-12-19T14:52:44.923Z,40.45
2022-12-19T14:54:10.840Z,37.63
2022-12-19T14:54:44.052Z,38.90
2022-12-19T14:56:13.044Z,38.65
2022-12-19T14:58:53.444Z,37.38
2022-12-19T15:01:23.364Z,38.80
2022-12-19T15:04:48.303Z,38.92
2022-12-19T15:07:08.582Z,35.85
2022-12-19T15:10:58.653Z,38.65
2022-12-19T15:14:46.750Z,38.17
2022-12-19T15:15:21.026Z,39.20
2022-12-19T15:17:52.232Z,38.10
2022-12-19T15:20:19.423Z,37.80
2022-12-19T15:22:46.449Z,37.42
2022-12-19T15:25:35.860Z,39.03
2022-12-19T15:28:02.061Z,37.85
2022-12-19T15:30:29.041Z,37.42
2022-12-19T15:32:56.028Z,37.53
2022-12-19T15:35:23.577Z,39.50
2022-12-19T15:37:50.580Z,37.78
2022-12-19T15:40:18.250Z,38.42
2022-12-19T15:42:45.437Z,38.53
2022-12-19T15:45:16.381Z,38.80
2022-12-19T15:47:43.447Z,40.75
2022-12-19T15:50:20.778Z,41.58
2022-12-19T15:52:47.792Z,41.15
2022-12-19T15:55:18.462Z,43.35
2022-12-19T15:57:47.275Z,40.30
2022-12-19T16:00:18.881Z,42.35
2022-12-19T16:05:33.315Z,45.10
2022-12-19T16:08:00.417Z,43.90
2022-12-19T16:10:27.425Z,45.15
2022-12-19T16:12:57.984Z,41.22
2022-12-19T16:17:52.825Z,46.38
2022-12-19T16:20:21.188Z,44.40
2022-12-19T16:22:48.193Z,43.88
2022-12-19T16:25:15.222Z,43.88
2022-12-19T16:27:42.294Z,44.75
2022-12-19T16:30:22.553Z,45.92
2022-12-19T16:32:49.691Z,42.88
2022-12-19T16:35:28.978Z,44.70
2022-12-19T16:38:04.586Z,43.13
2022-12-19T16:40:31.609Z,46.00
2022-12-19T16:43:11.461Z,47.13
2022-12-19T16:45:38.462Z,48.47
2022-12-19T16:48:11.701Z,47.03
2022-12-19T16:50:38.699Z,48.08
2022-12-19T16:53:05.676Z,47.47
2022-12-19T16:55:32.691Z,46.47
2022-12-19T16:57:59.718Z,47.20
2022-12-19T17:00:27.534Z,45.97
2022-12-19T17:03:03.557Z,46.50
2022-12-19T17:05:31.400Z,49.25
2022-12-19T17:07:58.446Z,49.10
2022-12-19T17:10:29.628Z,49.53
2022-12-19T17:12:56.609Z,49.67
2022-12-19T17:15:23.628Z,48.22
2022-12-19T17:17:50.767Z,51.60
2022-12-19T17:20:21.405Z,51.10
2022-12-19T17:22:48.616Z,50.10
2022-12-19T17:25:22.849Z,53.00
2022-12-19T17:27:49.978Z,51.22
2022-12-19T17:30:17.183Z,49.80
2022-12-19T17:32:44.268Z,50.97
2022-12-19T17:35:27.359Z,50.72
2022-12-19T17:37:55.322Z,49.78
2022-12-19T17:40:23.713Z,48.30
2022-12-19T17:42:50.761Z,49.38
2022-12-19T17:45:17.811Z,50.15
2022-12-19T17:47:45.197Z,50.75
2022-12-19T17:50:28.356Z,49.58
2022-12-19T17:52:55.823Z,48.45
2022-12-19T17:55:26.740Z,54.13
2022-12-19T17:57:53.922Z,49.28
2022-12-19T18:00:28.410Z,49.65
2022-12-19T18:02:57.453Z,48.95
2022-12-19T18:05:25.504Z,48.90
2022-12-19T18:07:52.697Z,48.50
2022-12-19T18:10:21.378Z,50.28
2022-12-19T18:12:48.451Z,48.22
2022-12-19T18:15:15.595Z,47.42
2022-12-19T18:17:42.722Z,48.00
2022-12-19T18:20:16.886Z,48.42
2022-12-19T18:22:43.908Z,47.90
2022-12-19T18:25:23.863Z,49.25
2022-12-19T18:27:51.436Z,46.50
2022-12-19T18:30:18.760Z,48.65
2022-12-19T18:32:46.172Z,45.15
2022-12-19T18:35:23.157Z,48.42
2022-12-19T18:37:50.461Z,47.42
2022-12-19T18:40:23.321Z,47.92
2022-12-19T18:42:53.150Z,46.65
2022-12-19T18:45:21.089Z,46.67
2022-12-19T18:47:51.592Z,46.17
2022-12-19T18:52:45.877Z,46.80
2022-12-19T18:55:15.280Z,46.75
2022-12-19T18:57:44.773Z,45.05
2022-12-19T19:00:13.093Z,47.00
2022-12-19T19:02:40.460Z,45.15
2022-12-19T19:05:10.449Z,46.13
2022-12-19T19:07:37.467Z,47.17
2022-12-19T19:10:09.890Z,46.33
2022-12-19T19:12:37.011Z,46.03
2022-12-19T19:15:05.536Z,46.42
2022-12-19T19:17:32.579Z,44.58
2022-12-19T19:19:59.752Z,46.38
2022-12-19T19:22:26.775Z,46.33
2022-12-19T19:24:53.881Z,46.10
2022-12-19T19:27:20.910Z,44.53
2022-12-19T19:29:47.981Z,46.17
2022-12-19T19:32:15.023Z,45.10
2022-12-19T19:34:42.088Z,44.22
2022-12-19T19:37:09.764Z,44.03
2022-12-19T19:39:37.111Z,44.95
2022-12-19T19:42:04.165Z,44.80
2022-12-19T19:44:32.222Z,42.92
2022-12-19T19:46:59.680Z,43.95
2022-12-19T19:49:26.875Z,43.53
2022-12-19T19:52:00.310Z,42.08
2022-12-19T19:54:29.448Z,42.53
2022-12-19T19:56:56.508Z,44.35
2022-12-19T19:59:23.545Z,42.25
2022-12-19T20:01:54.149Z,41.63
2022-12-19T20:04:21.544Z,41.65
2022-12-19T20:06:48.727Z,40.85
2022-12-19T20:09:15.777Z,40.40
2022-12-19T20:11:42.853Z,39.88
2022-12-19T20:14:09.901Z,39.45
2022-12-19T20:16:37.097Z,39.88
2022-12-19T20:19:04.245Z,39.60
2022-12-19T20:21:33.254Z,39.28
2022-12-19T20:24:00.341Z,38.10
2022-12-19T20:26:27.494Z,38.92
2022-12-19T20:28:54.513Z,38.58
2022-12-19T20:31:22.218Z,36.85
2022-12-19T20:33:50.412Z,36.20
2022-12-19T20:36:17.538Z,36.40
2022-12-19T20:38:44.678Z,36.92
2022-12-19T20:41:11.729Z,36.13
2022-12-19T20:43:38.893Z,34.50
2022-12-19T20:46:06.885Z,34.70
2022-12-19T20:48:34.089Z,33.92
2022-12-19T20:51:01.464Z,37.22
2022-12-19T20:53:28.709Z,34.00
2022-12-19T20:55:58.346Z,33.83
2022-12-19T20:58:28.903Z,32.70
2022-12-19T21:00:56.451Z,31.77
2022-12-19T21:03:28.508Z,33.20
2022-12-19T21:05:56.837Z,34.65
2022-12-19T21:08:24.084Z,34.55
2022-12-19T21:10:51.186Z,34.38
2022-12-19T21:13:18.276Z,35.45
2022-12-19T21:15:45.596Z,37.60
2022-12-19T21:18:12.708Z,35.92
2022-12-19T21:20:39.819Z,35.90
2022-12-19T21:23:06.927Z,33.17
2022-12-19T21:25:33.952Z,33.50
2022-12-19T21:28:00.977Z,33.42
2022-12-19T21:30:28.045Z,32.90
2022-12-19T21:32:55.556Z,34.47
2022-12-19T21:35:22.678Z,32.40
2022-12-19T21:37:52.600Z,33.88
2022-12-19T21:40:19.802Z,34.25
2022-12-19T21:42:47.022Z,33.08
2022-12-19T21:45:14.155Z,33.65
2022-12-19T21:47:42.092Z,33.30
2022-12-19T21:50:13.704Z,32.63
2022-12-19T21:52:40.783Z,33.17
2022-12-19T21:55:08.227Z,29.42
2022-12-19T21:57:39.034Z,31.55
2022-12-19T22:00:06.833Z,32.13
2022-12-19T22:02:33.970Z,31.65
2022-12-19T22:05:01.194Z,30.75
2022-12-19T22:07:28.217Z,30.80
2022-12-19T22:09:55.324Z,31.75
2022-12-19T22:12:22.438Z,31.30
2022-12-19T22:14:49.496Z,32.65
2022-12-19T22:17:16.556Z,30.45
2022-12-19T22:19:43.577Z,32.10
2022-12-19T22:22:10.603Z,30.63
2022-12-19T22:24:37.632Z,31.40
2022-12-19T22:27:04.970Z,29.23
2022-12-19T22:29:36.273Z,29.80
2022-12-19T22:32:03.995Z,29.10
2022-12-19T22:34:31.142Z,30.70
2022-12-19T22:36:58.276Z,30.08
2022-12-19T22:39:25.574Z,30.77
2022-12-19T22:41:52.647Z,30.20
2022-12-19T22:44:20.519Z,31.40
2022-12-19T22:46:47.610Z,29.13
2022-12-19T22:49:14.811Z,30.27
2022-12-19T22:51:41.933Z,30.75
2022-12-19T22:54:09.191Z,30.80
2022-12-19T22:56:36.433Z,30.45
2022-12-19T22:59:04.690Z,30.73
2022-12-19T23:01:33.356Z,32.72
2022-12-19T23:04:01.142Z,33.03
2022-12-19T23:06:28.692Z,31.42
2022-12-19T23:08:55.835Z,32.10
2022-12-19T23:11:24.433Z,31.83
2022-12-19T23:13:51.706Z,30.58
2022-12-19T23:16:19.000Z,32.40
2022-12-19T23:18:46.502Z,33.15
2022-12-19T23:21:14.839Z,32.88
2022-12-19T23:23:42.664Z,33.13
2022-12-19T23:26:15.546Z,32.75
2022-12-19T23:28:43.621Z,33.25
2022-12-19T23:31:12.007Z,33.78
2022-12-19T23:33:39.106Z,32.92
2022-12-19T23:36:06.331Z,32.35
2022-12-19T23:38:33.530Z,31.88
2022-12-19T23:41:03.921Z,33.05
2022-12-19T23:43:32.128Z,33.45
2022-12-19T23:45:59.320Z,33.22
2022-12-19T23:48:26.764Z,32.47
2022-12-19T23:51:00.593Z,33.38
2022-12-19T23:53:27.680Z,32.88
2022-12-19T23:55:54.782Z,32.33
2022-12-19T23:58:24.691Z,32.97
